^^
Datos históricos de la estación: Murcia-Puente Tocinos
Diario Informe para Enero 15, 2019 Unidades:  Métrico    Ingés   Ambas
Diario Semanal Mensual Anual
  Máxima: Mínima: Promedio:
Temperatura: 32.3 °C 14.8 °C 21.4 °C
Punto de rocio: 15.8 °C 8.8 °C 10.9 °C
Humedad: 81% 25% 54%
Velocidad viento: 27km/h 0km/h 9.3km/h
Racha viento: 48.3km/h - -
Viento- - SE
Presión: 1014.0 hPa 1006.2 hPa -
Precipitación: 0.0 mm    
 
 
Tabla de datos para Enero 15, 2019
Hora Temperatura Punto de rocio Presión Viento Velocidad viento Racha viento Humedad Intensidad lluvia(por hora) Nubes
00:04 18.3 °C 10.1 °C 1013.9 hPa SSE 3.2 km/h 8 km/h 58.7% 0.0 mm
00:09 18.3 °C 10.2 °C 1013.9 hPa SSE 3.1 km/h 8 km/h 59% 0.0 mm
00:14 18.2 °C 10.2 °C 1013.9 hPa SSE 2.9 km/h 3.7 km/h 59.4% 0.0 mm
00:19 18.2 °C 10.2 °C 1014.0 hPa SSE 1.8 km/h 3.2 km/h 59.8% 0.0 mm
00:24 18.1 °C 10.2 °C 1014.0 hPa Calm   2.3 km/h 60% 0.0 mm
00:29 18.1 °C 10.2 °C 1014.0 hPa Calm   1.6 km/h 60% 0.0 mm
00:34 18.1 °C 10.2 °C 1014.0 hPa Calm   5.8 km/h 60% 0.0 mm
00:39 18 °C 10.1 °C 1013.9 hPa SSE 0.9 km/h 6.4 km/h 59.9% 0.0 mm
00:44 17.9 °C 10 °C 1013.9 hPa Sur 2.2 km/h 5 km/h 60.1% 0.0 mm
00:49 17.8 °C 10.1 °C 1013.9 hPa Sur 2.2 km/h 7.4 km/h 60.8% 0.0 mm
00:54 17.7 °C 10.1 °C 1013.9 hPa ESE 2.2 km/h 8 km/h 61% 0.0 mm
00:59 17.7 °C 10.1 °C 1013.9 hPa SE 2.7 km/h 6.4 km/h 61% 0.0 mm
01:04 17.7 °C 10 °C 1013.9 hPa SE 3.2 km/h 7.6 km/h 60.6% 0.0 mm
01:09 17.7 °C 9.4 °C 1013.8 hPa SE 3.7 km/h 8 km/h 58.2% 0.0 mm
01:14 17.6 °C 9 °C 1013.8 hPa SSE 4.7 km/h 8 km/h 57% 0.0 mm
01:19 17.6 °C 9.2 °C 1013.8 hPa Sur 4.4 km/h 8 km/h 57.8% 0.0 mm
01:24 17.5 °C 9.1 °C 1013.7 hPa Sur 3.9 km/h 6.4 km/h 57.8% 0.0 mm
01:28 17.5 °C 9.7 °C 1013.7 hPa Sur 3.5 km/h 4.8 km/h 60.3% 0.0 mm
01:37 17.4 °C 10.3 °C 1013.6 hPa Sur 2.3 km/h 1.9 km/h 63% 0.0 mm
01:44 17.3 °C 10.4 °C 1013.6 hPa Calm   2.3 km/h 64% 0.0 mm
01:49 17.2 °C 10.4 °C 1013.6 hPa Sur 2.1 km/h 3.2 km/h 64.5% 0.0 mm
01:50 17.2 °C 10.6 °C 1013.4 hPa Sur 2.3 km/h 1.9 km/h 65% 0.0 mm
01:56 17.1 °C 10.4 °C 1013.4 hPa Sur 2.3 km/h 1.9 km/h 65% 0.0 mm
02:24 16.5 °C 10.2 °C 1013.0 hPa Calm   3.7 km/h 66% 0.0 mm
02:29 16.4 °C 10.1 °C 1013.1 hPa Calm   3.9 km/h 66% 0.0 mm
02:34 16.4 °C 10.1 °C 1013.0 hPa Calm   3.9 km/h 66% 0.0 mm
02:39 16.4 °C 9.8 °C 1012.8 hPa North 0.8 km/h 4.7 km/h 65.1% 0.0 mm
02:44 16.3 °C 9.7 °C 1012.8 hPa North 2.2 km/h 4.8 km/h 65% 0.0 mm
02:49 16.3 °C 9.9 °C 1012.8 hPa North 2.2 km/h 4.8 km/h 65.8% 0.0 mm
02:54 16.3 °C 9.8 °C 1012.6 hPa North 2.2 km/h 4.8 km/h 65.2% 0.0 mm
02:59 16.3 °C 9.7 °C 1012.6 hPa North 2.2 km/h 3.7 km/h 65% 0.0 mm
03:04 16.3 °C 9.6 °C 1012.6 hPa ENE 2.2 km/h 7.4 km/h 64.4% 0.0 mm
03:09 16.3 °C 9.4 °C 1012.4 hPa Este 2.6 km/h 8 km/h 63.7% 0.0 mm
03:14 16.3 °C 9.3 °C 1012.4 hPa Este 3.2 km/h 8 km/h 63.3% 0.0 mm
03:19 16.2 °C 9.2 °C 1012.4 hPa Este 2.9 km/h 3.9 km/h 63% 0.0 mm
03:24 16.2 °C 9.2 °C 1012.4 hPa Este 2.2 km/h 3.7 km/h 63.1% 0.0 mm
03:29 16.2 °C 9.4 °C 1012.4 hPa NNO 1.5 km/h 5.8 km/h 64% 0.0 mm
03:34 16 °C 9.4 °C 1012.4 hPa Calm   6.4 km/h 64.6% 0.0 mm
03:39 15.8 °C 9.4 °C 1012.2 hPa NNO 1.2 km/h 6.4 km/h 65.8% 0.0 mm
03:44 15.7 °C 9.5 °C 1012.2 hPa NO 3.2 km/h 7.4 km/h 66.4% 0.0 mm
03:49 15.7 °C 9.6 °C 1012.2 hPa NO 3.1 km/h 8 km/h 67% 0.0 mm
03:54 15.6 °C 9.5 °C 1012.0 hPa NO 2.9 km/h 4.8 km/h 67% 0.0 mm
03:59 15.6 °C 9.5 °C 1012.0 hPa NO 1.7 km/h   67% 0.0 mm
04:04 15.6 °C 9.5 °C 1012.0 hPa Calm     67% 0.0 mm
04:09 15.7 °C 9.6 °C 1011.9 hPa Calm     67% 0.0 mm
04:14 15.7 °C 9.7 °C 1011.9 hPa Calm     67.2% 0.0 mm
04:19 15.8 °C 9.5 °C 1011.9 hPa Calm   7.6 km/h 66.2% 0.0 mm
04:24 15.9 °C 9.3 °C 1011.7 hPa Calm   8.4 km/h 65% 0.0 mm
04:29 15.9 °C 9.3 °C 1011.7 hPa SE 1.3 km/h 8 km/h 65% 0.0 mm
04:34 15.8 °C 9.2 °C 1011.7 hPa SE 3.9 km/h 8 km/h 65% 0.0 mm
04:39 15.7 °C 9.4 °C 1011.6 hPa SE 3.3 km/h 7.4 km/h 65.8% 0.0 mm
04:44 15.6 °C 9.4 °C 1011.6 hPa SE 2.2 km/h 8 km/h 66.9% 0.0 mm
04:49 15.4 °C 9.3 °C 1011.6 hPa SE 2.5 km/h 8 km/h 67% 0.0 mm
04:54 15.4 °C 9.3 °C 1011.4 hPa SE 2.9 km/h 6.9 km/h 67.2% 0.0 mm
04:59 15.4 °C 9.5 °C 1011.4 hPa SO 2.6 km/h 8 km/h 68% 0.0 mm
05:04 15.4 °C 9.3 °C 1011.4 hPa SO 2.2 km/h 4.8 km/h 67% 0.0 mm
05:09 15.4 °C 9.3 °C 1011.3 hPa SO 1.4 km/h 3.9 km/h 67% 0.0 mm
05:14 15.4 °C 9.4 °C 1011.3 hPa Calm   5.6 km/h 67.7% 0.0 mm
05:19 15.4 °C 9.6 °C 1011.3 hPa SO 1.1 km/h 5.6 km/h 68% 0.0 mm
05:24 15.6 °C 9.5 °C 1011.2 hPa SSO 2.9 km/h 9.3 km/h 67% 0.0 mm
05:29 15.6 °C 9.4 °C 1011.2 hPa SSO 3.9 km/h 11.1 km/h 66.6% 0.0 mm
05:34 15.6 °C 9.4 °C 1011.2 hPa SO 5.8 km/h 11.3 km/h 66.5% 0.0 mm
05:39 15.6 °C 9.3 °C 1011.0 hPa SSO 5.5 km/h 9.7 km/h 66% 0.0 mm
05:44 15.6 °C 9.3 °C 1011.0 hPa SSO 5 km/h 11.9 km/h 66% 0.0 mm
05:49 15.6 °C 9.2 °C 1011.0 hPa SSO 5.5 km/h 11.3 km/h 66% 0.0 mm
05:54 15.5 °C 9.3 °C 1010.9 hPa SO 6.5 km/h 11.3 km/h 66.4% 0.0 mm
05:59 15.5 °C 9.4 °C 1010.9 hPa SSO 5.8 km/h 11.9 km/h 67% 0.0 mm
06:04 15.4 °C 9.3 °C 1010.9 hPa SO 5 km/h 11.3 km/h 67% 0.0 mm
06:09 15.4 °C 9.3 °C 1010.8 hPa SO 5.5 km/h 11.9 km/h 67% 0.0 mm
06:14 15.4 °C 9.3 °C 1010.8 hPa SO 6.5 km/h 14.8 km/h 67.2% 0.0 mm
06:19 15.4 °C 9.5 °C 1010.8 hPa SO 7.2 km/h 14.5 km/h 68% 0.0 mm
06:24 15.3 °C 9.5 °C 1010.8 hPa SO 8.7 km/h 12.9 km/h 68% 0.0 mm
06:29 15.3 °C 9.4 °C 1010.8 hPa SO 7.9 km/h 15.6 km/h 68% 0.0 mm
06:34 15.3 °C 9.4 °C 1010.8 hPa SO 6.5 km/h 16.1 km/h 68% 0.0 mm
06:39 15.3 °C 9.2 °C 1010.8 hPa SSO 6.5 km/h 11.3 km/h 67% 0.0 mm
06:44 15.3 °C 9.2 °C 1010.8 hPa SSE 6.5 km/h 13 km/h 67% 0.0 mm
06:49 15.2 °C 9.1 °C 1010.8 hPa SSE 6.6 km/h 12.9 km/h 67% 0.0 mm
06:54 15 °C 9.1 °C 1010.7 hPa Sur 6.9 km/h 13 km/h 67.8% 0.0 mm
06:59 14.8 °C 9 °C 1010.7 hPa SSE 7.5 km/h 13 km/h 68% 0.0 mm
07:04 14.8 °C 8.9 °C 1010.8 hPa Sur 8.4 km/h 13 km/h 68% 0.0 mm
07:09 14.8 °C 8.9 °C 1010.8 hPa SSO 7.7 km/h 12.9 km/h 67.9% 0.0 mm
07:14 14.8 °C 8.8 °C 1010.8 hPa SSO 6.5 km/h 11.3 km/h 67% 0.0 mm
07:19 14.9 °C 8.8 °C 1010.9 hPa SSO 6.5 km/h 11.3 km/h 67% 0.0 mm
07:24 14.9 °C 8.9 °C 1010.9 hPa SSO 6.5 km/h 10 km/h 67% 0.0 mm
07:29 15 °C 8.9 °C 1010.9 hPa Sur 6.5 km/h 10 km/h 67% 0.0 mm
07:34 15.1 °C 9 °C 1010.9 hPa SSO 6.5 km/h 9.7 km/h 67% 0.0 mm
07:39 15.1 °C 9 °C 1010.8 hPa SSO 6 km/h 9.3 km/h 67% 0.0 mm
07:44 15.2 °C 9.1 °C 1010.8 hPa Sur 5 km/h 9.7 km/h 67% 0.0 mm
07:49 15.3 °C 9.2 °C 1010.8 hPa SO 4.6 km/h 8 km/h 67% 0.0 mm
07:54 15.4 °C 9.2 °C 1010.8 hPa OSO 3.9 km/h 9.3 km/h 66.5% 0.0 mm
07:59 15.6 °C 9.3 °C 1010.8 hPa OSO 4.2 km/h 9.7 km/h 66% 0.0 mm
08:04 15.8 °C 9.4 °C 1010.8 hPa OSO 4.6 km/h 9.3 km/h 65.8% 0.0 mm
08:09 15.9 °C 9.3 °C 1010.7 hPa SO 4.7 km/h 9.7 km/h 65% 0.0 mm
08:14 16.1 °C 9.4 °C 1010.7 hPa SSO 4.7 km/h 9.7 km/h 64.8% 0.0 mm
08:19 16.2 °C 9.4 °C 1010.8 hPa Sur 4.4 km/h 8.4 km/h 64% 0.0 mm
08:24 16.2 °C 9.2 °C 1010.8 hPa Sur 3.9 km/h 8 km/h 63.1% 0.0 mm
08:29 16.3 °C 9.3 °C 1010.8 hPa SO 3.6 km/h 7.6 km/h 63% 0.0 mm
08:34 16.4 °C 9.2 °C 1010.8 hPa Sur 3.2 km/h 11.9 km/h 62.3% 0.0 mm
08:39 16.4 °C 9.1 °C 1010.7 hPa SSE 3.9 km/h 11.3 km/h 62% 0.0 mm
08:44 16.4 °C 9.1 °C 1010.7 hPa SSE 5 km/h 11.3 km/h 62% 0.0 mm
08:49 16.6 °C 9.3 °C 1010.7 hPa Sur 4.6 km/h 8 km/h 62% 0.0 mm
08:54 16.8 °C 9.3 °C 1010.7 hPa Sur 3.9 km/h 8 km/h 61.2% 0.0 mm
08:59 17.1 °C 9.5 °C 1010.7 hPa Sur 3.6 km/h 9.5 km/h 61% 0.0 mm
09:04 17.3 °C 9.6 °C 1010.7 hPa SE 3.2 km/h 9.7 km/h 60.3% 0.0 mm
09:09 17.6 °C 9.6 °C 1010.6 hPa SO 3.8 km/h 10.3 km/h 59.4% 0.0 mm
09:14 17.7 °C 9.6 °C 1010.6 hPa SO 5 km/h 11.3 km/h 59% 0.0 mm
09:19 17.8 °C 9.4 °C 1010.6 hPa SO 4.9 km/h 11.9 km/h 57.9% 0.0 mm
09:24 17.9 °C 9 °C 1010.6 hPa SO 4.7 km/h 13 km/h 56% 0.0 mm
09:29 18 °C 9.1 °C 1010.6 hPa SO 5.9 km/h 13.7 km/h 55.9% 0.0 mm
09:34 18.2 °C 9 °C 1010.6 hPa SO 8.4 km/h 14.8 km/h 55.2% 0.0 mm
09:39 18.3 °C 9.1 °C 1010.4 hPa SSO 8.5 km/h 14.5 km/h 55% 0.0 mm
09:44 18.4 °C 9.2 °C 1010.4 hPa SSO 8.7 km/h 12.9 km/h 54.9% 0.0 mm
09:49 18.7 °C 9.2 °C 1010.4 hPa SO 8.1 km/h 11.3 km/h 54% 0.0 mm
09:54 18.9 °C 9.3 °C 1010.2 hPa SSO 6.9 km/h 11.3 km/h 53.5% 0.0 mm
09:59 19.1 °C 9.3 °C 1010.2 hPa OSO 6.1 km/h 9.7 km/h 52.9% 0.0 mm
10:04 19.3 °C 9.4 °C 1010.2 hPa SO 5 km/h 10 km/h 52.8% 0.0 mm
10:09 19.5 °C 9.2 °C 1010.1 hPa OSO 5.5 km/h 11.1 km/h 51.4% 0.0 mm
10:14 19.6 °C 9.2 °C 1010.1 hPa Oeste 6.5 km/h 11.3 km/h 51% 0.0 mm
10:19 19.8 °C 9 °C 1010.1 hPa SO 6.5 km/h 13 km/h 50% 0.0 mm
10:24 19.8 °C 9.1 °C 1009.9 hPa OSO 6.5 km/h 13.7 km/h 50% 0.0 mm
10:29 19.9 °C 9.1 °C 1009.9 hPa SSO 6.6 km/h 14.5 km/h 49.7% 0.0 mm
10:34 20.2 °C 9.2 °C 1009.9 hPa Sur 6.9 km/h 13 km/h 49% 0.0 mm
10:39 20.5 °C 9.3 °C 1009.7 hPa Sur 7.2 km/h 12.9 km/h 48.8% 0.0 mm
10:44 20.7 °C 9.2 °C 1009.7 hPa OSO 7.6 km/h 16.1 km/h 47.8% 0.0 mm
10:49 20.8 °C 9.1 °C 1009.7 hPa SO 7.9 km/h 16.7 km/h 47% 0.0 mm
10:54 21.1 °C 9.2 °C 1009.5 hPa SO 8.4 km/h 16.1 km/h 46.7% 0.0 mm
10:59 21.3 °C 9.1 °C 1009.5 hPa OSO 8 km/h 14.8 km/h 45.7% 0.0 mm
11:04 21.4 °C 9 °C 1009.5 hPa SO 7.6 km/h 14.5 km/h 45% 0.0 mm
11:09 21.6 °C 9.1 °C 1009.4 hPa OSO 7.6 km/h 12.9 km/h 45% 0.0 mm
11:14 21.8 °C 9.2 °C 1009.4 hPa OSO 7.6 km/h 14.8 km/h 44.8% 0.0 mm
11:19 22.1 °C 9.3 °C 1009.4 hPa SSO 7.8 km/h 14.5 km/h 44.2% 0.0 mm
11:24 22.3 °C 9.4 °C 1009.3 hPa SO 8.4 km/h 13 km/h 43.9% 0.0 mm
11:29 22.6 °C 9.5 °C 1009.3 hPa OSO 7.9 km/h 14.8 km/h 43.3% 0.0 mm
11:34 22.9 °C 9.6 °C 1009.3 hPa OSO 6.9 km/h 14.5 km/h 43% 0.0 mm
11:39 23.2 °C 9.6 °C 1009.1 hPa Oeste 6.9 km/h 12.9 km/h 42.3% 0.0 mm
11:44 23.4 °C 9.7 °C 1009.1 hPa SO 6.9 km/h 11.3 km/h 41.8% 0.0 mm
11:49 23.7 °C 9.7 °C 1009.1 hPa SO 6.6 km/h 12.2 km/h 41% 0.0 mm
11:54 23.9 °C 9.6 °C 1008.9 hPa Sur 5.8 km/h 13 km/h 40.2% 0.0 mm
11:59 24 °C 9.6 °C 1008.9 hPa SSE 6.1 km/h 12.9 km/h 40% 0.0 mm
12:04 24.3 °C 9.8 °C 1008.9 hPa SO 6.5 km/h 10 km/h 39.8% 0.0 mm
12:09 24.6 °C 9.8 °C 1008.7 hPa OSO 5.9 km/h 9.7 km/h 39.2% 0.0 mm
12:14 24.9 °C 9.7 °C 1008.7 hPa SSO 5 km/h 11.1 km/h 38.3% 0.0 mm
12:19 25.2 °C 9.9 °C 1008.7 hPa SSE 5.3 km/h 11.3 km/h 38% 0.0 mm
12:24 25.6 °C 9.9 °C 1008.6 hPa SE 5.8 km/h 13 km/h 37.3% 0.0 mm
12:29 25.9 °C 10.1 °C 1008.6 hPa SE 5.5 km/h 13 km/h 37% 0.0 mm
12:34 26.2 °C 10.1 °C 1008.6 hPa SO 5 km/h 8.4 km/h 36.3% 0.0 mm
12:39 26.6 °C 10 °C 1008.4 hPa SO 4.9 km/h 13 km/h 35.3% 0.0 mm
12:44 26.7 °C 10 °C 1008.4 hPa OSO 4.7 km/h 12.9 km/h 35% 0.0 mm
12:49 26.8 °C 9.9 °C 1008.4 hPa SO 4.8 km/h 11.1 km/h 34.6% 0.0 mm
12:54 26.9 °C 9.9 °C 1008.2 hPa SO 5 km/h 11.3 km/h 34.4% 0.0 mm
12:59 27.1 °C 9.9 °C 1008.2 hPa ONO 4.8 km/h 9.7 km/h 34% 0.0 mm
13:04 27.3 °C 10 °C 1008.2 hPa ONO 4.6 km/h 8 km/h 34% 0.0 mm
13:09 27.3 °C 10.1 °C 1007.9 hPa Oeste 4.4 km/h 9.5 km/h 34% 0.0 mm
13:14 27.6 °C 10.1 °C 1007.9 hPa Sur 3.9 km/h 13 km/h 33.6% 0.0 mm
13:19 27.8 °C 10.1 °C 1007.9 hPa SO 4.7 km/h 12.9 km/h 33% 0.0 mm
13:24 28 °C 10.1 °C 1007.7 hPa SO 6.5 km/h 11.3 km/h 32.7% 0.0 mm
13:29 28.2 °C 10 °C 1007.7 hPa SO 6.2 km/h 11.9 km/h 32% 0.0 mm
13:34 28.4 °C 10.2 °C 1007.7 hPa SE 5.8 km/h 11.3 km/h 32% 0.0 mm
13:39 28.7 °C 10.2 °C 1007.5 hPa SE 5.5 km/h 11.3 km/h 31.6% 0.0 mm
13:44 29 °C 10.1 °C 1007.5 hPa OSO 5 km/h 10.3 km/h 30.8% 0.0 mm
13:49 29.3 °C 10 °C 1007.5 hPa SSE 5.3 km/h 9.7 km/h 30% 0.0 mm
13:54 29.5 °C 10.1 °C 1007.3 hPa Este 5.8 km/h 9.7 km/h 30% 0.0 mm
13:59 29.7 °C 10.3 °C 1007.3 hPa SE 5.3 km/h 11.1 km/h 30% 0.0 mm
14:04 29.9 °C 9.9 °C 1007.3 hPa SSO 4.6 km/h 11.3 km/h 29% 0.0 mm
14:09 30.1 °C 10 °C 1007.1 hPa Sur 5.3 km/h 11.3 km/h 28.9% 0.0 mm
14:14 30.2 °C 9.7 °C 1007.1 hPa Sur 6.5 km/h 9.7 km/h 28% 0.0 mm
14:19 30.2 °C 9.7 °C 1007.1 hPa ESE 6 km/h 9.7 km/h 28.1% 0.0 mm
14:24 30.3 °C 9.8 °C 1006.9 hPa Sur 5 km/h 10 km/h 28.1% 0.0 mm
14:29 30.4 °C 9.4 °C 1006.9 hPa SO 5 km/h 9.7 km/h 27.2% 0.0 mm
14:34 30.4 °C 9.5 °C 1006.9 hPa Sur 5 km/h 10 km/h 27.3% 0.0 mm
14:39 30.7 °C 9.4 °C 1006.9 hPa Sur 5.3 km/h 9.7 km/h 26.9% 0.0 mm
14:44 30.8 °C 9.3 °C 1006.9 hPa Sur 5.8 km/h 11.1 km/h 26.4% 0.0 mm
14:49 31 °C 9.3 °C 1006.9 hPa NNE 5.4 km/h 11.3 km/h 26% 0.0 mm
14:54 31.2 °C 8.9 °C 1006.7 hPa SSO 4.7 km/h 9.7 km/h 25.1% 0.0 mm
14:59 31.5 °C 9.1 °C 1006.7 hPa SSO 4.8 km/h 13.7 km/h 25% 0.0 mm
15:04 31.7 °C 9.6 °C 1006.7 hPa SO 5 km/h 14.5 km/h 25.6% 0.0 mm
15:09 31.7 °C 9.9 °C 1006.5 hPa SSE 5.5 km/h 12.9 km/h 26% 0.0 mm
15:14 32 °C 10 °C 1006.5 hPa Este 6.5 km/h 9.7 km/h 25.9% 0.0 mm
15:19 32.3 °C 10.2 °C 1006.5 hPa SE 5.5 km/h 11.1 km/h 25.8% 0.0 mm
15:24 32.3 °C 10.7 °C 1006.4 hPa SE 3.9 km/h 16.7 km/h 26.6% 0.0 mm
15:29 32.2 °C 10.9 °C 1006.4 hPa Este 5.4 km/h 16.7 km/h 27% 0.0 mm
15:34 32.1 °C 10.6 °C 1006.4 hPa ENE 8.4 km/h 16.7 km/h 26.7% 0.0 mm
15:39 31.9 °C 10.1 °C 1006.4 hPa North 8.5 km/h 16.1 km/h 26.1% 0.0 mm
15:44 32 °C 10.1 °C 1006.4 hPa NNE 8.7 km/h 18.5 km/h 26% 0.0 mm
15:49 32 °C 10.1 °C 1006.4 hPa NE 9.1 km/h 20.4 km/h 26% 0.0 mm
15:54 32 °C 11.3 °C 1006.2 hPa NE 10 km/h 27.8 km/h 28.3% 0.0 mm
15:59 31.5 °C 13 °C 1006.2 hPa NE 13 km/h 33.3 km/h 32.4% 0.0 mm
16:04 30.9 °C 13 °C 1006.3 hPa NE 17.2 km/h 34.6 km/h 33.6% 0.0 mm
16:09 30.5 °C 13 °C 1006.3 hPa NNE 18.7 km/h 35.4 km/h 34.4% 0.0 mm
16:14 29.9 °C 13.1 °C 1006.3 hPa NE 21.7 km/h 35.9 km/h 35.7% 0.0 mm
16:19 29.6 °C 13 °C 1006.3 hPa NE 22.4 km/h 40.7 km/h 36.2% 0.0 mm
16:24 29.4 °C 12.8 °C 1006.3 hPa NE 23.7 km/h 40.2 km/h 36% 0.0 mm
16:29 29.3 °C 12.9 °C 1006.3 hPa NE 24.1 km/h 38.9 km/h 36.5% 0.0 mm
16:34 29.2 °C 12.8 °C 1006.3 hPa NE 25.1 km/h 40.7 km/h 36.6% 0.0 mm
16:39 28.8 °C 12.7 °C 1006.2 hPa NE 24.6 km/h 40.2 km/h 37% 0.0 mm
16:44 28.8 °C 12.6 °C 1006.2 hPa NE 23.7 km/h 37 km/h 36.9% 0.0 mm
16:49 28.7 °C 12.5 °C 1006.2 hPa NNE 23.9 km/h 40.7 km/h 37% 0.0 mm
16:54 28.6 °C 12.5 °C 1006.2 hPa NE 24.5 km/h 40.2 km/h 37% 0.0 mm
16:59 28.5 °C 12.6 °C 1006.2 hPa NNE 24 km/h 42.3 km/h 37.5% 0.0 mm
17:04 28.1 °C 12.3 °C 1006.3 hPa NE 23.3 km/h 42.6 km/h 37.5% 0.0 mm
17:09 28.1 °C 12.4 °C 1006.3 hPa NE 24.1 km/h 41.8 km/h 38% 0.0 mm
17:14 27.9 °C 12.4 °C 1006.3 hPa NNE 25.6 km/h 43.1 km/h 38.2% 0.0 mm
17:19 27.7 °C 12.5 °C 1006.3 hPa NNE 25.2 km/h 48.1 km/h 38.9% 0.0 mm
17:24 27.3 °C 12.6 °C 1006.3 hPa NE 24.5 km/h 48.3 km/h 40.1% 0.0 mm
17:29 27.2 °C 12.8 °C 1006.3 hPa NNE 25.3 km/h 48.3 km/h 41.1% 0.0 mm
17:34 27.2 °C 12.9 °C 1006.5 hPa NE 27 km/h 42.6 km/h 41.3% 0.0 mm
17:39 27.1 °C 13.1 °C 1006.5 hPa NNE 26.4 km/h 41.8 km/h 42% 0.0 mm
17:44 27 °C 13.2 °C 1006.5 hPa NE 25.1 km/h 40.7 km/h 42.6% 0.0 mm
17:49 26.8 °C 13.1 °C 1006.6 hPa NE 24.5 km/h 40.2 km/h 42.7% 0.0 mm
17:54 26.6 °C 12.8 °C 1006.6 hPa NE 23.3 km/h 40.2 km/h 42.6% 0.0 mm
17:59 26.4 °C 12.8 °C 1006.6 hPa NE 24.1 km/h 44.4 km/h 43% 0.0 mm
18:04 26.4 °C 12.8 °C 1006.9 hPa NNE 25.1 km/h 45.1 km/h 43.1% 0.0 mm
18:09 26.6 °C 12.8 °C 1006.9 hPa NE 24.9 km/h 40.2 km/h 42.7% 0.0 mm
18:14 26.6 °C 12.3 °C 1006.9 hPa NE 24.5 km/h 39.6 km/h 41.1% 0.0 mm
18:19 26.6 °C 12.2 °C 1007.0 hPa NE 24.2 km/h 41.2 km/h 40.9% 0.0 mm
18:24 26.3 °C 11.9 °C 1007.0 hPa NE 23.7 km/h 41.8 km/h 40.6% 0.0 mm
18:29 26.3 °C 11.5 °C 1007.0 hPa NE 23.3 km/h 38.6 km/h 39.6% 0.0 mm
18:34 26.2 °C 11.2 °C 1007.1 hPa NE 22.5 km/h 39.6 km/h 39% 0.0 mm
18:39 25.9 °C 10.9 °C 1007.1 hPa NE 23.4 km/h 40.2 km/h 39% 0.0 mm
18:44 25.8 °C 11.2 °C 1007.1 hPa NE 25.1 km/h 40.2 km/h 40.2% 0.0 mm
18:49 25.7 °C 11.5 °C 1007.3 hPa NE 24.2 km/h 35.4 km/h 41% 0.0 mm
18:54 25.7 °C 11.3 °C 1007.3 hPa NE 22.5 km/h 35.4 km/h 40.8% 0.0 mm
18:59 25.5 °C 11.4 °C 1007.3 hPa NE 21.5 km/h 37.8 km/h 41.3% 0.0 mm
19:04 25.2 °C 11.4 °C 1007.4 hPa NE 20.1 km/h 37 km/h 42% 0.0 mm
19:09 25 °C 11.4 °C 1007.4 hPa NE 20.9 km/h 35.9 km/h 42.6% 0.0 mm
19:14 24.8 °C 11.5 °C 1007.4 hPa NE 22.5 km/h 35.4 km/h 43.3% 0.0 mm
19:19 24.6 °C 11.5 °C 1007.6 hPa NE 22.5 km/h 37 km/h 43.9% 0.0 mm
19:24 24.4 °C 11.5 °C 1007.6 hPa NE 22.5 km/h 37 km/h 44.4% 0.0 mm
19:29 24.2 °C 12 °C 1007.6 hPa NE 21.7 km/h 35.4 km/h 46.5% 0.0 mm
19:34 24.2 °C 12.4 °C 1007.9 hPa NE 20.1 km/h 32.8 km/h 47.8% 0.0 mm
19:39 23.9 °C 12.2 °C 1007.9 hPa NE 20.1 km/h 35.2 km/h 48% 0.0 mm
19:44 23.7 °C 12.5 °C 1007.9 hPa NE 20.1 km/h 35.4 km/h 49.5% 0.0 mm
19:49 23.5 °C 12.6 °C 1008.0 hPa NE 20 km/h 33.8 km/h 50.5% 0.0 mm
19:54 23.3 °C 12.6 °C 1008.0 hPa NE 19.8 km/h 34.3 km/h 51.3% 0.0 mm
19:59 23 °C 12.6 °C 1008.0 hPa NE 20.6 km/h 33.8 km/h 52% 0.0 mm
20:04 22.8 °C 12.8 °C 1008.2 hPa NE 21.7 km/h 31.7 km/h 53.2% 0.0 mm
20:09 22.7 °C 13.2 °C 1008.2 hPa NE 20.5 km/h 32.2 km/h 55% 0.0 mm
20:14 22.4 °C 13.2 °C 1008.2 hPa NE 18 km/h 31.5 km/h 56% 0.0 mm
20:19 22.2 °C 13 °C 1008.4 hPa NE 18 km/h 32.2 km/h 56% 0.0 mm
20:24 21.9 °C 12.8 °C 1008.4 hPa NNE 18 km/h 29.6 km/h 56.1% 0.0 mm
20:29 21.7 °C 12.8 °C 1008.4 hPa NE 17.2 km/h 29.6 km/h 56.7% 0.0 mm
20:34 21.6 °C 12.8 °C 1008.8 hPa NE 15.6 km/h 29 km/h 57.3% 0.0 mm
20:39 21.4 °C 12.9 °C 1008.8 hPa NE 15.9 km/h 27.8 km/h 58.5% 0.0 mm
20:44 21.3 °C 13 °C 1008.8 hPa NE 16.4 km/h 29.6 km/h 59.4% 0.0 mm
20:49 21.1 °C 13.1 °C 1009.0 hPa NE 17 km/h 29 km/h 60% 0.0 mm
20:54 21.1 °C 13.2 °C 1009.0 hPa NE 18 km/h 27.4 km/h 60.8% 0.0 mm
20:59 21 °C 13.4 °C 1009.0 hPa NE 16.7 km/h 25.6 km/h 61.9% 0.0 mm
21:04 20.8 °C 13.4 °C 1009.3 hPa NE 14.8 km/h 25.9 km/h 62.4% 0.0 mm
21:09 20.7 °C 13.5 °C 1009.3 hPa NE 15.6 km/h 27.8 km/h 63.1% 0.0 mm
21:14 20.6 °C 13.6 °C 1009.3 hPa NE 17.2 km/h 27.8 km/h 64.2% 0.0 mm
21:19 20.5 °C 13.7 °C 1009.6 hPa NE 16.8 km/h 27.4 km/h 65.3% 0.0 mm
21:24 20.4 °C 13.9 °C 1009.6 hPa NE 16.1 km/h 24.1 km/h 66.4% 0.0 mm
21:29 20.3 °C 14.4 °C 1009.6 hPa NE 15 km/h 22.5 km/h 68.9% 0.0 mm
21:34 20.2 °C 14.7 °C 1009.7 hPa NE 13 km/h 22.5 km/h 70.7% 0.0 mm
21:39 20.1 °C 14.9 °C 1009.7 hPa NE 13.7 km/h 24.1 km/h 72.2% 0.0 mm
21:44 19.9 °C 15 °C 1009.7 hPa NE 14.8 km/h 24.1 km/h 73.3% 0.0 mm
21:49 19.8 °C 15.1 °C 1009.9 hPa NE 14.2 km/h 25.9 km/h 74.3% 0.0 mm
21:54 19.7 °C 15.3 °C 1009.9 hPa NE 13 km/h 25.7 km/h 75.4% 0.0 mm
21:59 19.6 °C 15.3 °C 1009.9 hPa NE 14.1 km/h 30.6 km/h 76.4% 0.0 mm
22:04 19.5 °C 15.3 °C 1010.3 hPa NE 15.6 km/h 30.6 km/h 77% 0.0 mm
22:09 19.4 °C 15.4 °C 1010.3 hPa NE 14.5 km/h 25.9 km/h 77.5% 0.0 mm
22:14 19.3 °C 15.5 °C 1010.3 hPa NE 12.2 km/h 26.2 km/h 78.3% 0.0 mm
22:19 19.3 °C 15.5 °C 1010.8 hPa NE 12.8 km/h 25.9 km/h 79% 0.0 mm
22:24 19.2 °C 15.4 °C 1010.8 hPa NE 14 km/h 22.5 km/h 79% 0.0 mm
22:29 19.2 °C 15.4 °C 1010.8 hPa NE 12.7 km/h 20.9 km/h 79% 0.0 mm
22:34 19.2 °C 15.4 °C 1011.0 hPa NE 10.3 km/h 19.3 km/h 78.5% 0.0 mm
22:39 19.2 °C 15.3 °C 1011.0 hPa NE 10.3 km/h 21.7 km/h 78% 0.0 mm
22:44 19.2 °C 15.2 °C 1011.0 hPa NE 10.3 km/h 22.5 km/h 78% 0.0 mm
22:49 19.2 °C 15.3 °C 1011.4 hPa NE 10 km/h 22.5 km/h 78.1% 0.0 mm
22:54 19.2 °C 15.4 °C 1011.4 hPa NE 9.5 km/h 16.4 km/h 79% 0.0 mm
22:59 19.1 °C 15.4 °C 1011.4 hPa NE 9.2 km/h 16.7 km/h 79% 0.0 mm
23:04 19.1 °C 15.5 °C 1011.5 hPa NE 8.7 km/h 20.9 km/h 79.7% 0.0 mm
23:09 19.1 °C 15.5 °C 1011.5 hPa NE 9.9 km/h 21.7 km/h 80% 0.0 mm
23:14 19 °C 15.4 °C 1011.5 hPa NE 11.9 km/h 20.9 km/h 80% 0.0 mm
23:19 19 °C 15.5 °C 1011.6 hPa NE 11.6 km/h 20.9 km/h 80.2% 0.0 mm
23:24 19 °C 15.7 °C 1011.6 hPa NE 11.1 km/h 20.9 km/h 81% 0.0 mm
23:29 19.1 °C 15.7 °C 1011.6 hPa NE 11.1 km/h 18.5 km/h 81% 0.0 mm
23:34 19.1 °C 15.8 °C 1011.8 hPa NE 11.1 km/h 19.3 km/h 81% 0.0 mm
23:39 19.2 °C 15.8 °C 1011.8 hPa NE 10.7 km/h 17.2 km/h 80.8% 0.0 mm
23:44 19.2 °C 15.8 °C 1011.8 hPa NE 10 km/h 17.7 km/h 80.5% 0.0 mm
23:49 19.2 °C 15.7 °C 1011.8 hPa NNE 9.5 km/h 16.7 km/h 80.1% 0.0 mm
23:54 19.2 °C 15.7 °C 1011.8 hPa NE 8.7 km/h 20.1 km/h 80.4% 0.0 mm
23:59 19.2 °C 15.8 °C 1011.8 hPa NE 9.7 km/h 24.1 km/h 80.2% 0.0 mm
Murcia-Puente Tocinos, Espa?a
Compliments of Weather Underground - 3 mb

La estación de MeteoMurcia.com, publica sus datos en los siguientes proyectos:

Weather Underground PWS IMURCIAP2 Meteoclimatic www.awekas.at

W3Counter
Web Analytics